createdAt,value
2018-10-02T00:01:06.044Z,8.80
2018-10-02T00:03:34.903Z,8.80
2018-10-02T00:06:03.717Z,8.80
2018-10-02T00:08:32.557Z,8.70
2018-10-02T00:11:06.557Z,8.60
2018-10-02T00:13:40.616Z,8.70
2018-10-02T00:16:09.657Z,8.70
2018-10-02T00:18:38.471Z,8.80
2018-10-02T00:21:07.631Z,8.90
2018-10-02T00:23:36.438Z,8.90
2018-10-02T00:26:05.248Z,8.90
2018-10-02T00:28:34.440Z,8.90
2018-10-02T00:31:03.210Z,8.80
2018-10-02T00:33:32.186Z,8.90
2018-10-02T00:36:01.005Z,8.80
2018-10-02T00:38:29.935Z,8.80
2018-10-02T00:40:58.750Z,8.80
2018-10-02T00:43:27.574Z,8.80
2018-10-02T00:45:57.328Z,8.80
2018-10-02T00:48:26.127Z,8.70
2018-10-02T00:50:55.151Z,8.80
2018-10-02T00:53:23.972Z,8.70
2018-10-02T00:55:53.113Z,8.70
2018-10-02T00:58:21.930Z,8.70
2018-10-02T01:00:50.841Z,8.70
2018-10-02T01:03:19.661Z,8.70
2018-10-02T01:05:48.472Z,8.60
2018-10-02T01:08:17.340Z,8.60
2018-10-02T01:10:46.119Z,8.60
2018-10-02T01:13:15.065Z,8.60
2018-10-02T01:15:43.902Z,8.70
2018-10-02T01:18:12.734Z,8.70
2018-10-02T01:20:41.572Z,8.60
2018-10-02T01:23:10.372Z,8.30
2018-10-02T01:25:39.202Z,8.60
2018-10-02T01:28:07.982Z,8.60
2018-10-02T01:30:36.819Z,8.50
2018-10-02T01:33:05.717Z,8.60
2018-10-02T01:35:34.576Z,8.50
2018-10-02T01:38:03.481Z,8.60
2018-10-02T01:40:32.268Z,8.70
2018-10-02T01:43:01.105Z,8.90
2018-10-02T01:45:29.879Z,8.90
2018-10-02T01:47:58.722Z,9.00
2018-10-02T01:50:27.504Z,9.00
2018-10-02T01:52:56.396Z,9.00
2018-10-02T01:55:25.181Z,9.00
2018-10-02T01:57:53.959Z,9.00
2018-10-02T02:00:24.055Z,9.20
2018-10-02T02:02:52.912Z,9.20
2018-10-02T02:05:21.738Z,9.10
2018-10-02T02:07:50.797Z,9.20
2018-10-02T02:10:19.596Z,9.10
2018-10-02T02:12:48.401Z,9.20
2018-10-02T02:15:17.239Z,9.20
2018-10-02T02:17:46.038Z,9.20
2018-10-02T02:20:14.877Z,9.20
2018-10-02T02:22:43.686Z,9.20
2018-10-02T02:25:12.521Z,9.30
2018-10-02T02:27:41.372Z,9.40
2018-10-02T02:30:10.235Z,9.40
2018-10-02T02:32:39.006Z,9.40
2018-10-02T02:35:07.874Z,9.50
2018-10-02T02:37:36.694Z,9.40
2018-10-02T02:40:06.283Z,9.50
2018-10-02T02:42:35.121Z,9.50
2018-10-02T02:45:03.959Z,9.50
2018-10-02T02:47:37.903Z,9.50
2018-10-02T02:50:11.944Z,9.60
2018-10-02T02:52:44.387Z,9.40
2018-10-02T02:55:13.422Z,9.50
2018-10-02T02:57:42.217Z,9.50
2018-10-02T03:00:11.106Z,9.50
2018-10-02T03:02:39.950Z,9.60
2018-10-02T03:05:08.791Z,9.70
2018-10-02T03:07:37.614Z,9.60
2018-10-02T03:10:06.445Z,9.70
2018-10-02T03:12:35.332Z,9.70
2018-10-02T03:15:04.128Z,9.70
2018-10-02T03:17:32.965Z,9.80
2018-10-02T03:20:01.746Z,9.80
2018-10-02T03:22:30.524Z,9.80
2018-10-02T03:24:59.346Z,9.80
2018-10-02T03:27:28.158Z,9.80
2018-10-02T03:29:57.074Z,9.80
2018-10-02T03:32:25.942Z,9.70
2018-10-02T03:34:54.780Z,9.60
2018-10-02T03:37:23.581Z,9.70
2018-10-02T03:39:52.540Z,9.80
2018-10-02T03:42:21.330Z,9.80
2018-10-02T03:44:50.146Z,9.70
2018-10-02T03:47:18.978Z,9.70
2018-10-02T03:49:47.767Z,9.50
2018-10-02T03:52:16.610Z,9.60
2018-10-02T03:54:45.519Z,9.80
2018-10-02T03:57:14.337Z,9.80
2018-10-02T03:59:43.166Z,9.80
2018-10-02T04:02:12.015Z,9.80
2018-10-02T04:04:40.892Z,9.80
2018-10-02T04:07:09.919Z,9.90
2018-10-02T04:09:38.750Z,9.80
2018-10-02T04:12:07.668Z,10.00
2018-10-02T04:14:36.574Z,10.00
2018-10-02T04:17:05.412Z,10.00
2018-10-02T04:19:35.158Z,10.10
2018-10-02T04:22:04.104Z,10.00
2018-10-02T04:24:32.914Z,10.10
2018-10-02T04:27:01.745Z,10.10
2018-10-02T04:29:30.883Z,10.20
2018-10-02T04:31:59.781Z,10.10
2018-10-02T04:34:28.578Z,9.90
2018-10-02T04:36:57.458Z,9.80
2018-10-02T04:39:26.321Z,9.90
2018-10-02T04:41:55.177Z,10.00
2018-10-02T04:44:23.966Z,9.90
2018-10-02T04:46:52.812Z,9.90
2018-10-02T04:49:21.623Z,9.90
2018-10-02T04:51:50.475Z,9.90
2018-10-02T04:54:19.334Z,9.90
2018-10-02T04:56:48.169Z,9.80
2018-10-02T04:59:17.025Z,9.60
2018-10-02T05:01:45.914Z,9.60
2018-10-02T05:04:14.825Z,9.60
2018-10-02T05:06:43.636Z,9.50
2018-10-02T05:09:12.472Z,9.30
2018-10-02T05:11:41.403Z,9.30
2018-10-02T05:14:10.315Z,9.30
2018-10-02T05:16:39.178Z,9.50
2018-10-02T05:19:07.986Z,9.60
2018-10-02T05:21:36.970Z,9.50
2018-10-02T05:24:05.928Z,9.60
2018-10-02T05:26:34.799Z,9.70
2018-10-02T05:29:03.654Z,9.70
2018-10-02T05:31:32.437Z,9.80
2018-10-02T05:34:01.334Z,9.90
2018-10-02T05:36:30.089Z,9.80
2018-10-02T05:39:00.247Z,9.50
2018-10-02T05:41:32.305Z,9.50
2018-10-02T05:44:04.257Z,9.40
2018-10-02T05:46:34.041Z,9.20
2018-10-02T05:49:03.126Z,9.10
2018-10-02T05:51:34.111Z,9.10
2018-10-02T05:54:05.828Z,9.20
2018-10-02T05:56:34.772Z,9.40
2018-10-02T05:59:03.891Z,9.40
2018-10-02T06:01:32.984Z,9.40
2018-10-02T06:04:01.737Z,9.30
2018-10-02T06:06:30.536Z,9.10
2018-10-02T06:09:00.187Z,9.30
2018-10-02T06:11:29.077Z,9.30
2018-10-02T06:13:58.397Z,9.30
2018-10-02T06:16:27.489Z,9.20
2018-10-02T06:18:57.349Z,9.20
2018-10-02T06:21:27.355Z,9.30
2018-10-02T06:23:56.757Z,9.40
2018-10-02T06:26:26.542Z,9.30
2018-10-02T06:28:56.294Z,9.40
2018-10-02T06:31:26.143Z,9.20
2018-10-02T06:33:55.537Z,9.30
2018-10-02T06:36:26.115Z,9.40
2018-10-02T06:38:56.558Z,9.60
2018-10-02T06:41:26.231Z,9.60
2018-10-02T06:43:55.979Z,9.70
2018-10-02T06:46:24.868Z,9.50
2018-10-02T06:48:59.174Z,9.50
2018-10-02T06:51:28.229Z,9.60
2018-10-02T06:53:57.802Z,9.60
2018-10-02T06:56:27.133Z,9.60
2018-10-02T06:58:56.859Z,9.60
2018-10-02T07:01:25.774Z,9.60
2018-10-02T07:03:56.067Z,9.70
2018-10-02T07:06:25.238Z,9.90
2018-10-02T07:08:59.877Z,9.80
2018-10-02T07:11:29.309Z,9.80
2018-10-02T07:13:59.717Z,9.70
2018-10-02T07:16:28.967Z,9.80
2018-10-02T07:18:57.843Z,9.70
2018-10-02T07:21:27.784Z,9.80
2018-10-02T07:23:56.658Z,9.70
2018-10-02T07:26:26.222Z,9.60
2018-10-02T07:28:56.876Z,9.70
2018-10-02T07:31:30.015Z,9.80
2018-10-02T07:33:58.865Z,9.80
2018-10-02T07:36:27.804Z,9.80
2018-10-02T07:38:57.129Z,10.00
2018-10-02T07:41:26.023Z,10.00
2018-10-02T07:43:54.813Z,10.10
2018-10-02T07:46:23.918Z,10.10
2018-10-02T07:48:52.750Z,10.20
2018-10-02T07:51:22.836Z,10.20
2018-10-02T07:53:52.011Z,10.30
2018-10-02T07:56:21.684Z,10.30
2018-10-02T07:58:50.460Z,10.30
2018-10-02T08:01:19.372Z,10.10
2018-10-02T08:03:53.438Z,10.10
2018-10-02T08:06:23.579Z,10.00
2018-10-02T08:08:53.012Z,10.10
2018-10-02T08:11:22.224Z,10.20
2018-10-02T08:13:51.688Z,10.20
2018-10-02T08:16:25.230Z,10.30
2018-10-02T08:18:54.682Z,10.40
2018-10-02T08:21:28.312Z,10.60
2018-10-02T08:23:59.062Z,10.60
2018-10-02T08:26:28.677Z,10.60
2018-10-02T08:28:59.064Z,10.60
2018-10-02T08:31:28.489Z,10.30
2018-10-02T08:33:57.414Z,10.40
2018-10-02T08:36:26.467Z,10.40
2018-10-02T08:38:58.228Z,10.60
2018-10-02T08:41:29.000Z,10.60
2018-10-02T08:43:58.075Z,10.60
2018-10-02T08:46:27.076Z,10.70
2018-10-02T08:48:55.850Z,10.70
2018-10-02T08:51:24.629Z,10.70
2018-10-02T08:53:53.435Z,10.80
2018-10-02T08:56:22.199Z,10.80
2018-10-02T08:58:51.045Z,10.80
2018-10-02T09:01:19.813Z,10.70
2018-10-02T09:03:48.641Z,10.80
2018-10-02T09:06:17.503Z,10.70
2018-10-02T09:08:46.296Z,10.80
2018-10-02T09:11:15.186Z,10.90
2018-10-02T09:13:44.027Z,10.90
2018-10-02T09:16:12.891Z,11.00
2018-10-02T09:18:41.675Z,11.10
2018-10-02T09:21:10.538Z,11.20
2018-10-02T09:23:39.894Z,11.20
2018-10-02T09:26:15.037Z,11.30
2018-10-02T09:28:51.918Z,11.30
2018-10-02T09:31:27.497Z,11.40
2018-10-02T09:34:02.140Z,11.40
2018-10-02T09:36:38.408Z,11.50
2018-10-02T09:39:19.121Z,11.40
2018-10-02T09:41:53.467Z,11.50
2018-10-02T09:44:22.360Z,11.70
2018-10-02T09:46:51.323Z,11.70
2018-10-02T09:49:20.154Z,11.80
2018-10-02T09:51:49.115Z,12.00
2018-10-02T09:54:17.906Z,12.00
2018-10-02T09:56:47.156Z,12.10
2018-10-02T09:59:16.642Z,12.20
2018-10-02T10:01:50.762Z,12.10
2018-10-02T10:04:20.352Z,12.20
2018-10-02T10:06:49.206Z,12.20
2018-10-02T10:09:18.002Z,12.20
2018-10-02T10:11:46.817Z,12.30
2018-10-02T10:14:15.688Z,12.30
2018-10-02T10:16:44.693Z,12.30
2018-10-02T10:19:13.469Z,12.40
2018-10-02T10:21:42.369Z,12.50
2018-10-02T10:24:12.239Z,12.70
2018-10-02T10:26:41.211Z,12.60
2018-10-02T10:29:11.487Z,12.70
2018-10-02T10:31:40.388Z,12.70
2018-10-02T10:34:09.215Z,12.80
2018-10-02T10:36:38.036Z,12.80
2018-10-02T10:39:11.745Z,12.80
2018-10-02T10:41:40.635Z,12.70
2018-10-02T10:44:09.983Z,12.80
2018-10-02T10:46:38.944Z,12.90
2018-10-02T10:49:09.481Z,12.90
2018-10-02T10:51:38.728Z,13.00
2018-10-02T10:54:09.248Z,13.10
2018-10-02T10:56:39.326Z,13.00
2018-10-02T10:59:08.651Z,13.00
2018-10-02T11:01:38.521Z,13.10
2018-10-02T11:04:07.949Z,13.20
2018-10-02T11:06:38.696Z,13.30
2018-10-02T11:09:11.419Z,13.20
2018-10-02T11:11:41.851Z,13.30
2018-10-02T11:14:10.860Z,13.40
2018-10-02T11:16:42.913Z,13.50
2018-10-02T11:19:12.793Z,13.60
2018-10-02T11:21:41.677Z,13.70
2018-10-02T11:24:10.499Z,13.80
2018-10-02T11:26:39.372Z,13.70
2018-10-02T11:29:08.463Z,13.70
2018-10-02T11:31:37.267Z,13.70
2018-10-02T11:34:06.141Z,13.60
2018-10-02T11:36:35.066Z,13.70
2018-10-02T11:39:06.634Z,13.70
2018-10-02T11:41:35.449Z,13.60
2018-10-02T11:44:04.393Z,13.70
2018-10-02T11:46:33.397Z,13.60
2018-10-02T11:49:02.210Z,13.70
2018-10-02T11:51:31.918Z,13.60
2018-10-02T11:54:42.923Z,13.70
2018-10-02T11:57:16.544Z,13.80
2018-10-02T11:59:45.491Z,13.80
2018-10-02T12:02:14.909Z,13.70
2018-10-02T12:04:44.305Z,13.90
2018-10-02T12:07:13.121Z,14.00
2018-10-02T12:09:42.002Z,14.10
2018-10-02T12:12:11.403Z,14.20
2018-10-02T12:14:40.851Z,14.20
2018-10-02T12:17:09.765Z,14.30
2018-10-02T12:19:38.841Z,14.40
2018-10-02T12:22:07.644Z,14.50
2018-10-02T12:24:37.786Z,14.70
2018-10-02T12:27:08.846Z,14.70
2018-10-02T12:29:37.671Z,14.90
2018-10-02T12:32:06.444Z,15.10
2018-10-02T12:34:36.472Z,15.20
2018-10-02T12:37:06.049Z,15.20
2018-10-02T12:39:34.948Z,15.30
2018-10-02T12:42:05.076Z,15.30
2018-10-02T12:44:35.438Z,15.40
2018-10-02T12:47:04.383Z,15.40
2018-10-02T12:49:33.227Z,15.30
2018-10-02T12:52:02.065Z,15.40
2018-10-02T12:54:30.833Z,15.40
2018-10-02T12:57:01.097Z,15.40
2018-10-02T12:59:30.064Z,15.50
2018-10-02T13:01:58.883Z,15.60
2018-10-02T13:04:27.646Z,15.70
2018-10-02T13:06:56.629Z,15.80
2018-10-02T13:09:25.453Z,15.80
2018-10-02T13:11:54.302Z,16.10
2018-10-02T13:14:23.103Z,16.20
2018-10-02T13:16:51.863Z,16.30
2018-10-02T13:19:20.746Z,16.30
2018-10-02T13:21:49.580Z,16.30
2018-10-02T13:24:18.388Z,16.40
2018-10-02T13:26:47.309Z,16.40
2018-10-02T13:29:16.278Z,16.50
2018-10-02T13:31:45.148Z,16.80
2018-10-02T13:34:14.696Z,17.10
2018-10-02T13:36:43.559Z,17.10
2018-10-02T13:39:12.374Z,17.10
2018-10-02T13:41:41.269Z,17.00
2018-10-02T13:44:10.105Z,17.10
2018-10-02T13:46:38.981Z,17.20
2018-10-02T13:49:07.799Z,17.20
2018-10-02T13:51:37.462Z,17.20
2018-10-02T13:54:06.867Z,17.20
2018-10-02T13:56:35.660Z,17.20
2018-10-02T13:59:04.534Z,17.10
2018-10-02T14:01:33.361Z,17.20
2018-10-02T14:04:02.192Z,17.20
2018-10-02T14:06:31.152Z,17.30
2018-10-02T14:09:00.029Z,17.30
2018-10-02T14:11:28.913Z,17.10
2018-10-02T14:13:57.696Z,17.30
2018-10-02T14:16:26.574Z,17.20
2018-10-02T14:18:55.337Z,17.10
2018-10-02T14:21:25.094Z,17.00
2018-10-02T14:23:53.945Z,17.10
2018-10-02T14:26:22.698Z,17.00
2018-10-02T14:28:51.520Z,17.00
2018-10-02T14:31:20.341Z,17.00
2018-10-02T14:33:50.053Z,17.00
2018-10-02T14:36:18.864Z,17.00
2018-10-02T14:38:47.724Z,16.90
2018-10-02T14:41:16.621Z,16.90
2018-10-02T14:43:45.396Z,16.90
2018-10-02T14:46:14.253Z,16.70
2018-10-02T14:48:43.062Z,16.60
2018-10-02T14:51:11.929Z,16.70
2018-10-02T14:53:40.833Z,16.90
2018-10-02T14:56:10.340Z,17.00
2018-10-02T14:58:39.988Z,17.00
2018-10-02T15:01:09.132Z,17.00
2018-10-02T15:03:37.955Z,17.10
2018-10-02T15:06:06.773Z,17.10
2018-10-02T15:08:35.821Z,17.00
2018-10-02T15:11:04.670Z,17.00
2018-10-02T15:13:33.484Z,17.00
2018-10-02T15:16:02.337Z,17.10
2018-10-02T15:18:31.270Z,16.90
2018-10-02T15:21:00.237Z,17.00
2018-10-02T15:23:29.070Z,17.00
2018-10-02T15:25:58.431Z,17.10
2018-10-02T15:28:27.239Z,17.10
2018-10-02T15:30:56.001Z,17.00
2018-10-02T15:33:24.804Z,17.00
2018-10-02T15:35:53.628Z,17.00
2018-10-02T15:38:22.441Z,16.90
2018-10-02T15:40:54.057Z,16.90
2018-10-02T15:43:22.993Z,16.80
2018-10-02T15:45:51.890Z,16.80
2018-10-02T15:48:49.184Z,16.70
2018-10-02T15:51:19.002Z,16.50
2018-10-02T15:53:48.038Z,16.40
2018-10-02T15:56:16.937Z,16.40
2018-10-02T15:58:46.701Z,16.50
2018-10-02T16:01:15.533Z,16.40
2018-10-02T16:03:44.296Z,16.40
2018-10-02T16:06:13.166Z,16.30
2018-10-02T16:08:41.968Z,16.40
2018-10-02T16:11:10.797Z,16.30
2018-10-02T16:13:39.640Z,16.30
2018-10-02T16:16:18.633Z,16.30
2018-10-02T16:18:47.421Z,16.20
2018-10-02T16:21:16.295Z,16.00
2018-10-02T16:23:45.145Z,15.90
2018-10-02T16:26:14.022Z,15.90
2018-10-02T16:28:42.839Z,15.90
2018-10-02T16:31:11.693Z,15.80
2018-10-02T16:33:40.522Z,15.70
2018-10-02T16:36:09.331Z,15.60
2018-10-02T16:38:38.183Z,15.60
2018-10-02T16:41:07.046Z,15.60
2018-10-02T16:43:35.885Z,15.70
2018-10-02T16:46:11.169Z,15.70
2018-10-02T16:48:40.048Z,15.70
2018-10-02T16:51:08.915Z,15.70
2018-10-02T16:53:37.812Z,15.60
2018-10-02T16:56:07.281Z,15.50
2018-10-02T16:58:36.113Z,15.50
2018-10-02T17:01:05.044Z,15.30
2018-10-02T17:03:34.086Z,15.30
2018-10-02T17:06:02.947Z,15.10
2018-10-02T17:08:31.702Z,15.10
2018-10-02T17:11:00.669Z,15.20
2018-10-02T17:13:29.548Z,15.10
2018-10-02T17:15:58.374Z,15.20
2018-10-02T17:18:27.217Z,15.20
2018-10-02T17:20:56.070Z,15.20
2018-10-02T17:23:24.906Z,15.20
2018-10-02T17:25:53.752Z,15.10
2018-10-02T17:28:22.557Z,15.10
2018-10-02T17:30:51.380Z,15.00
2018-10-02T17:33:20.242Z,15.00
2018-10-02T17:35:49.176Z,14.90
2018-10-02T17:38:18.030Z,14.80
2018-10-02T17:40:46.907Z,14.80
2018-10-02T17:43:15.788Z,14.70
2018-10-02T17:45:44.649Z,14.70
2018-10-02T17:48:13.514Z,14.60
2018-10-02T17:50:42.485Z,14.60
2018-10-02T17:53:11.300Z,14.50
2018-10-02T17:55:40.441Z,14.40
2018-10-02T17:58:09.580Z,14.30
2018-10-02T18:00:38.458Z,14.30
2018-10-02T18:03:07.458Z,14.40
2018-10-02T18:05:36.620Z,14.30
2018-10-02T18:08:05.480Z,14.30
2018-10-02T18:10:34.372Z,14.40
2018-10-02T18:13:05.637Z,14.40
2018-10-02T18:15:34.437Z,14.50
2018-10-02T18:18:03.242Z,14.50
2018-10-02T18:20:32.065Z,14.50
2018-10-02T18:23:00.938Z,14.50
2018-10-02T18:25:29.785Z,14.50
2018-10-02T18:27:58.867Z,14.30
2018-10-02T18:30:27.706Z,14.20
2018-10-02T18:32:56.480Z,14.20
2018-10-02T18:35:25.414Z,14.10
2018-10-02T18:37:54.280Z,14.20
2018-10-02T18:40:23.106Z,14.00
2018-10-02T18:42:52.523Z,14.00
2018-10-02T18:45:21.355Z,14.00
2018-10-02T18:47:50.164Z,14.00
2018-10-02T18:50:19.577Z,13.90
2018-10-02T18:52:49.008Z,13.90
2018-10-02T18:55:17.852Z,13.80
2018-10-02T18:57:46.691Z,13.80
2018-10-02T19:00:15.636Z,13.70
2018-10-02T19:02:44.539Z,13.70
2018-10-02T19:05:13.346Z,13.60
2018-10-02T19:07:42.165Z,13.60
2018-10-02T19:10:10.982Z,13.60
2018-10-02T19:12:39.826Z,13.50
2018-10-02T19:15:08.749Z,13.50
2018-10-02T19:17:37.586Z,13.40
2018-10-02T19:20:11.743Z,13.30
2018-10-02T19:22:40.612Z,13.30
2018-10-02T19:25:14.660Z,13.20
2018-10-02T19:27:43.488Z,13.20
2018-10-02T19:30:17.551Z,13.10
2018-10-02T19:32:46.396Z,12.90
2018-10-02T19:35:15.210Z,13.00
2018-10-02T19:37:49.272Z,13.00
2018-10-02T19:40:18.025Z,13.00
2018-10-02T19:42:59.737Z,13.00
2018-10-02T19:45:49.743Z,13.00
2018-10-02T19:48:21.086Z,12.90
2018-10-02T19:50:49.976Z,12.90
2018-10-02T19:53:18.854Z,12.90
2018-10-02T19:55:49.943Z,12.80
2018-10-02T19:58:18.717Z,12.70
2018-10-02T20:00:47.571Z,12.80
2018-10-02T20:03:16.394Z,12.70
2018-10-02T20:05:45.256Z,12.70
2018-10-02T20:08:14.154Z,12.70
2018-10-02T20:10:42.969Z,12.70
2018-10-02T20:13:11.869Z,12.60
2018-10-02T20:15:40.681Z,12.60
2018-10-02T20:18:09.458Z,12.60
2018-10-02T20:20:38.320Z,12.60
2018-10-02T20:23:18.555Z,12.60
2018-10-02T20:25:49.075Z,12.60
2018-10-02T20:28:21.827Z,12.60
2018-10-02T20:30:50.930Z,12.60
2018-10-02T20:33:19.860Z,12.60
2018-10-02T20:35:48.869Z,12.40
2018-10-02T20:38:17.684Z,12.50
2018-10-02T20:40:47.023Z,12.50
2018-10-02T20:43:15.899Z,12.40
2018-10-02T20:45:45.460Z,12.40
2018-10-02T20:48:14.301Z,12.40
2018-10-02T20:50:43.184Z,12.40
2018-10-02T20:53:12.143Z,12.40
2018-10-02T20:55:41.169Z,12.30
2018-10-02T20:58:10.073Z,12.40
2018-10-02T21:00:38.894Z,12.40
2018-10-02T21:03:07.673Z,12.40
2018-10-02T21:05:36.512Z,12.40
2018-10-02T21:08:05.342Z,12.40
2018-10-02T21:10:34.155Z,12.30
2018-10-02T21:13:03.056Z,12.30
2018-10-02T21:15:32.012Z,12.30
2018-10-02T21:18:01.575Z,12.30
2018-10-02T21:20:30.992Z,12.30
2018-10-02T21:22:59.829Z,12.30
2018-10-02T21:25:28.635Z,12.30
2018-10-02T21:27:57.450Z,12.30
2018-10-02T21:30:26.256Z,12.30
2018-10-02T21:32:55.041Z,12.30
2018-10-02T21:35:23.850Z,12.40
2018-10-02T21:37:52.766Z,12.30
2018-10-02T21:40:21.564Z,12.40
2018-10-02T21:42:50.399Z,12.30
2018-10-02T21:45:19.211Z,12.40
2018-10-02T21:47:48.087Z,12.20
2018-10-02T21:50:16.885Z,12.10
2018-10-02T21:52:45.745Z,12.20
2018-10-02T21:55:14.765Z,12.20
2018-10-02T21:57:43.581Z,12.20
2018-10-02T22:00:12.449Z,12.20
2018-10-02T22:02:41.239Z,12.10
2018-10-02T22:05:10.021Z,12.10
2018-10-02T22:07:38.801Z,12.10
2018-10-02T22:10:07.674Z,12.00
2018-10-02T22:12:36.492Z,12.00
2018-10-02T22:15:05.451Z,12.00
2018-10-02T22:17:34.236Z,12.00
2018-10-02T22:20:03.073Z,12.00
2018-10-02T22:22:31.930Z,12.10
2018-10-02T22:25:00.730Z,12.10
2018-10-02T22:27:29.643Z,12.10
2018-10-02T22:29:58.476Z,12.20
2018-10-02T22:32:27.269Z,12.20
2018-10-02T22:34:56.760Z,12.20
2018-10-02T22:37:25.706Z,12.30
2018-10-02T22:39:54.585Z,12.30
2018-10-02T22:42:23.388Z,12.30
2018-10-02T22:44:52.160Z,12.40
2018-10-02T22:47:20.993Z,12.40
2018-10-02T22:49:49.738Z,12.40
2018-10-02T22:52:19.089Z,12.40
2018-10-02T22:54:47.849Z,12.40
2018-10-02T22:57:16.683Z,12.50
2018-10-02T22:59:45.496Z,12.50
2018-10-02T23:02:14.340Z,12.50
2018-10-02T23:04:43.132Z,12.50
2018-10-02T23:07:11.950Z,12.50
2018-10-02T23:09:40.725Z,12.60
2018-10-02T23:12:09.548Z,12.60
2018-10-02T23:14:38.351Z,12.60
2018-10-02T23:17:07.124Z,12.70
2018-10-02T23:19:35.898Z,12.70
2018-10-02T23:22:04.753Z,12.70
2018-10-02T23:24:33.601Z,12.80
2018-10-02T23:27:03.309Z,12.80
2018-10-02T23:29:32.177Z,12.80
2018-10-02T23:32:01.053Z,12.80
2018-10-02T23:34:29.948Z,12.90
2018-10-02T23:36:58.807Z,12.80
2018-10-02T23:39:27.622Z,12.80
2018-10-02T23:41:56.490Z,12.80
2018-10-02T23:44:25.253Z,12.80
2018-10-02T23:46:54.145Z,12.80
2018-10-02T23:49:22.968Z,12.80
2018-10-02T23:51:52.649Z,12.80
2018-10-02T23:54:21.568Z,12.70
2018-10-02T23:56:50.402Z,12.90
2018-10-02T23:59:19.321Z,12.90
